Time;durP1;ratioP1;P1;durP2;ratioP2;P2;SDS_P1;SDS_P2;PMS_P1;PMS_P2;Temp;Humidity;BMP_temperature;BMP_pressure;BME280_temperature;BME280_humidity;BME280_pressure;Samples;Min_cycle;Max_cycle;Signal;HPM_P1;HPM_P2
2021/09/06 00:01:56;;;;;;;22.13;15.90;;;;;;;13.98;83.19;102359.97;5026816;28;20044;-78
2021/09/06 00:04:22;;;;;;;27.30;16.75;;;;;;;13.97;83.13;102369.66;5025823;28;20339;-78
2021/09/06 00:06:47;;;;;;;27.77;17.33;;;;;;;13.70;84.53;102366.09;5028191;28;20056;-78
2021/09/06 00:09:14;;;;;;;25.23;17.45;;;;;;;13.65;85.26;102354.81;5046180;28;20044;-78
2021/09/06 00:11:39;;;;;;;29.15;17.75;;;;;;;13.59;86.62;102360.28;5016050;28;20052;-78
2021/09/06 00:14:05;;;;;;;28.40;19.02;;;;;;;13.58;85.83;102364.66;5045668;28;20044;-78
2021/09/06 00:16:30;;;;;;;24.98;18.33;;;;;;;13.57;85.45;102362.94;4998513;28;20029;-78
2021/09/06 00:18:56;;;;;;;26.77;17.05;;;;;;;13.55;85.46;102361.25;4994170;28;20066;-78
2021/09/06 00:21:21;;;;;;;21.42;15.25;;;;;;;13.53;85.22;102350.75;5022512;28;20071;-78
2021/09/06 00:23:47;;;;;;;23.48;15.18;;;;;;;13.52;85.33;102356.09;5029708;28;20033;-78
2021/09/06 00:26:13;;;;;;;23.55;14.88;;;;;;;13.44;85.79;102351.03;5036283;28;20021;-79
2021/09/06 00:28:38;;;;;;;24.65;16.02;;;;;;;13.49;85.86;102350.91;4993887;28;20087;-78
2021/09/06 00:31:03;;;;;;;22.40;15.73;;;;;;;13.60;84.95;102362.00;5044829;28;20189;-78
2021/09/06 00:33:29;;;;;;;24.10;14.55;;;;;;;13.66;84.12;102355.69;5009662;28;20071;-77
2021/09/06 00:35:54;;;;;;;20.90;15.40;;;;;;;13.60;84.63;102359.34;5033280;28;20036;-78
2021/09/06 00:38:20;;;;;;;24.02;15.38;;;;;;;13.48;84.84;102363.22;5038602;28;20053;-77
2021/09/06 00:40:46;;;;;;;19.42;14.50;;;;;;;13.55;84.30;102350.72;5015373;28;20028;-77
2021/09/06 00:43:12;;;;;;;21.60;15.75;;;;;;;13.61;83.89;102348.78;5045033;28;20039;-78
2021/09/06 00:45:38;;;;;;;22.08;15.05;;;;;;;13.68;83.77;102356.50;5028332;28;20032;-79
2021/09/06 00:48:04;;;;;;;22.83;16.05;;;;;;;13.49;84.49;102353.53;5045016;28;20029;-78
2021/09/06 00:50:30;;;;;;;24.45;17.25;;;;;;;13.27;85.41;102361.16;5058206;28;20032;-78
2021/09/06 00:52:55;;;;;;;22.77;15.38;;;;;;;13.40;83.84;102352.03;5035873;28;20037;-78
2021/09/06 00:55:20;;;;;;;25.33;16.52;;;;;;;13.54;84.39;102359.53;5025404;28;20231;-78
2021/09/06 00:57:46;;;;;;;28.00;16.98;;;;;;;13.42;85.64;102353.72;5028480;28;20053;-79
2021/09/06 01:00:12;;;;;;;25.77;17.42;;;;;;;13.43;86.14;102355.44;5024046;28;20029;-79
2021/09/06 01:02:38;;;;;;;24.25;17.50;;;;;;;13.64;84.71;102353.09;5026097;28;20033;-78
2021/09/06 01:05:04;;;;;;;27.80;17.15;;;;;;;13.64;84.39;102355.72;5043311;28;20096;-78
2021/09/06 01:07:29;;;;;;;26.73;17.63;;;;;;;13.65;85.14;102346.06;5026805;28;20060;-78
2021/09/06 01:09:55;;;;;;;28.45;18.95;;;;;;;13.49;85.48;102351.75;5043421;28;20326;-78
2021/09/06 01:12:20;;;;;;;22.67;16.58;;;;;;;13.32;85.42;102347.00;5024497;28;20217;-78
2021/09/06 01:14:45;;;;;;;19.83;14.07;;;;;;;13.21;85.39;102351.66;4992765;28;20531;-78
2021/09/06 01:17:11;;;;;;;20.45;13.63;;;;;;;13.01;86.36;102355.69;5038423;28;20158;-78
2021/09/06 01:19:38;;;;;;;19.55;12.50;;;;;;;12.93;86.53;102356.78;5043205;28;20043;-78
2021/09/06 01:22:03;;;;;;;16.27;12.90;;;;;;;13.00;86.56;102353.94;5000877;28;20220;-79
2021/09/06 01:24:29;;;;;;;16.60;13.10;;;;;;;13.07;85.47;102350.25;5024771;28;20017;-78
2021/09/06 01:26:54;;;;;;;21.58;15.65;;;;;;;13.23;85.96;102355.13;5009020;28;20025;-79
2021/09/06 01:29:19;;;;;;;19.98;14.30;;;;;;;13.38;85.22;102359.97;5008147;28;20071;-79
2021/09/06 01:31:45;;;;;;;24.30;16.42;;;;;;;13.22;85.20;102359.53;5009988;28;20037;-79
2021/09/06 01:34:11;;;;;;;22.77;16.25;;;;;;;13.03;85.94;102363.53;5010020;28;20041;-78
2021/09/06 01:36:37;;;;;;;24.75;16.35;;;;;;;12.97;86.81;102358.44;5011764;28;20321;-78
2021/09/06 01:39:03;;;;;;;24.83;15.45;;;;;;;12.97;86.53;102363.69;5009323;28;20021;-78
2021/09/06 01:41:28;;;;;;;25.65;16.50;;;;;;;12.96;86.69;102367.25;4997448;28;20032;-78
2021/09/06 01:43:54;;;;;;;24.42;16.05;;;;;;;12.97;86.26;102363.69;5045481;28;20012;-78
2021/09/06 01:46:19;;;;;;;23.40;16.88;;;;;;;12.94;86.94;102366.41;5007643;28;20025;-78
2021/09/06 01:48:44;;;;;;;26.42;16.42;;;;;;;12.83;86.95;102374.59;5042695;28;20025;-78
2021/09/06 01:51:10;;;;;;;23.35;16.05;;;;;;;12.82;87.16;102362.31;5010497;28;20056;-78
2021/09/06 01:53:35;;;;;;;27.98;16.38;;;;;;;12.89;86.93;102366.53;5027718;28;20037;-79
2021/09/06 01:56:01;;;;;;;25.15;16.45;;;;;;;12.91;87.00;102363.88;5044824;28;20041;-79
2021/09/06 01:58:26;;;;;;;26.02;15.82;;;;;;;12.76;87.62;102358.09;5024812;28;20079;-79
2021/09/06 02:00:51;;;;;;;25.08;15.77;;;;;;;12.79;86.78;102365.06;5008668;28;20025;-78
2021/09/06 02:03:17;;;;;;;26.20;16.65;;;;;;;12.82;87.11;102365.84;5043691;28;20033;-79
2021/09/06 02:05:42;;;;;;;24.10;17.02;;;;;;;12.78;87.04;102365.94;4991866;28;20232;-78
2021/09/06 02:08:08;;;;;;;28.85;17.05;;;;;;;12.81;87.26;102358.00;5022827;28;20052;-78
2021/09/06 02:10:33;;;;;;;25.25;17.08;;;;;;;12.89;86.98;102363.91;5027832;28;20095;-78
2021/09/06 02:12:58;;;;;;;21.85;14.85;;;;;;;12.85;85.65;102360.47;5016811;28;20374;-79
2021/09/06 02:15:24;;;;;;;26.13;17.00;;;;;;;12.85;87.27;102365.75;5010081;28;20034;-79
2021/09/06 02:17:49;;;;;;;22.17;16.02;;;;;;;12.91;86.79;102367.34;5029439;28;20033;-80
2021/09/06 02:20:15;;;;;;;25.95;15.50;;;;;;;12.90;86.63;102364.75;5011123;28;20051;-80
2021/09/06 02:22:40;;;;;;;27.20;17.85;;;;;;;12.81;87.45;102364.09;5019294;28;20119;-79
2021/09/06 02:25:06;;;;;;;33.70;20.23;;;;;;;12.83;87.63;102361.44;5030091;28;20038;-79
2021/09/06 02:27:32;;;;;;;25.27;17.98;;;;;;;13.05;86.41;102369.63;5029778;28;20055;-80
2021/09/06 02:29:57;;;;;;;27.05;18.30;;;;;;;13.13;85.54;102366.78;5002481;28;20029;-80
2021/09/06 02:32:22;;;;;;;22.33;16.48;;;;;;;13.17;84.49;102360.53;5009527;28;20059;-80
2021/09/06 02:34:48;;;;;;;23.77;16.60;;;;;;;13.02;85.33;102367.06;5019301;28;20340;-80
2021/09/06 02:37:13;;;;;;;30.02;18.42;;;;;;;13.23;85.29;102361.22;5025138;28;20237;-80
2021/09/06 02:39:39;;;;;;;29.38;18.42;;;;;;;13.03;85.96;102372.28;5034460;28;20039;-79
2021/09/06 02:42:04;;;;;;;29.08;18.17;;;;;;;12.96;86.28;102375.97;5011497;28;20224;-79
2021/09/06 02:44:30;;;;;;;25.48;17.85;;;;;;;12.94;85.94;102369.06;5026607;28;20033;-81
2021/09/06 02:46:56;;;;;;;29.48;19.00;;;;;;;12.79;87.02;102373.81;5011050;28;20409;-81
2021/09/06 02:49:22;;;;;;;27.10;18.33;;;;;;;12.76;87.36;102367.75;5024073;28;20026;-81
2021/09/06 02:51:47;;;;;;;29.13;19.83;;;;;;;12.92;86.76;102370.84;5044259;28;20039;-81
2021/09/06 02:54:15;;;;;;;35.40;21.38;;;;;;;12.74;87.74;102372.19;5032144;28;20053;-81
2021/09/06 02:56:40;;;;;;;32.35;20.23;;;;;;;12.95;87.10;102369.00;4994927;28;20104;-81
2021/09/06 02:59:06;;;;;;;34.65;20.42;;;;;;;12.89;87.26;102371.78;5026256;28;20054;-81
2021/09/06 03:01:31;;;;;;;35.03;21.33;;;;;;;13.00;86.70;102374.13;5029693;28;20053;-81
2021/09/06 03:03:57;;;;;;;30.88;19.23;;;;;;;12.78;85.94;102371.19;5057805;28;20021;-81
2021/09/06 03:06:22;;;;;;;30.98;17.00;;;;;;;12.82;85.78;102376.34;5029567;28;20063;-81
2021/09/06 03:08:48;;;;;;;24.10;15.68;;;;;;;12.84;85.09;102377.19;5030131;28;20021;-80
2021/09/06 03:11:13;;;;;;;23.85;16.77;;;;;;;12.65;86.10;102381.16;5045774;28;20098;-82
2021/09/06 03:13:38;;;;;;;27.35;16.88;;;;;;;12.92;85.33;102368.22;5006003;28;20331;-81
2021/09/06 03:16:04;;;;;;;23.33;16.17;;;;;;;12.67;86.48;102371.47;5026787;28;20033;-81
2021/09/06 03:18:30;;;;;;;26.73;16.80;;;;;;;12.53;87.27;102369.19;5009465;28;20025;-81
2021/09/06 03:20:57;;;;;;;30.17;17.05;;;;;;;12.55;86.84;102364.78;4994259;28;20267;-81
2021/09/06 03:23:22;;;;;;;30.80;17.67;;;;;;;12.59;86.72;102362.94;5012090;28;20034;-81
2021/09/06 03:25:50;;;;;;;34.17;16.67;;;;;;;12.64;85.98;102366.28;5046623;28;20051;-81
2021/09/06 03:28:15;;;;;;;29.83;15.68;;;;;;;12.59;86.37;102363.78;5045896;28;20025;-81
2021/09/06 03:30:41;;;;;;;24.52;16.30;;;;;;;12.53;86.95;102355.19;5027388;28;20031;-81
2021/09/06 03:33:08;;;;;;;30.50;18.70;;;;;;;12.49;87.14;102364.91;5029128;28;20041;-81
2021/09/06 03:35:33;;;;;;;21.90;15.02;;;;;;;12.49;86.91;102357.03;4994272;28;20036;-81
2021/09/06 03:37:58;;;;;;;29.52;16.35;;;;;;;12.58;85.91;102359.41;4995283;28;20108;-82
2021/09/06 03:40:24;;;;;;;27.85;17.33;;;;;;;12.41;86.54;102359.84;5012969;28;20402;-81
2021/09/06 03:42:49;;;;;;;31.00;18.88;;;;;;;12.56;85.42;102361.22;5026890;28;20037;-81
2021/09/06 03:45:15;;;;;;;27.50;18.58;;;;;;;12.55;86.80;102361.25;5043708;28;20025;-81
2021/09/06 03:47:40;;;;;;;26.35;17.83;;;;;;;12.44;86.93;102359.78;5026215;28;20041;-82
2021/09/06 03:50:06;;;;;;;31.23;18.73;;;;;;;12.41;87.65;102354.59;5040661;28;20099;-81
2021/09/06 03:52:31;;;;;;;31.10;20.30;;;;;;;12.47;88.01;102361.44;5032856;28;20049;-82
2021/09/06 03:54:57;;;;;;;30.98;20.10;;;;;;;12.41;87.82;102357.22;5040028;28;20043;-82
2021/09/06 03:57:22;;;;;;;22.33;14.80;;;;;;;12.36;87.01;102360.84;5010229;28;20059;-82
2021/09/06 03:59:48;;;;;;;26.77;16.20;;;;;;;12.40;87.13;102368.59;5021129;28;20021;-81
2021/09/06 04:02:13;;;;;;;20.60;13.27;;;;;;;12.38;86.51;102359.06;5032043;28;20043;-83
2021/09/06 04:04:39;;;;;;;23.00;14.95;;;;;;;12.41;86.74;102359.84;5010338;28;20041;-83
2021/09/06 04:07:04;;;;;;;23.13;15.10;;;;;;;12.35;86.79;102367.88;5026026;28;20236;-83
2021/09/06 04:09:30;;;;;;;24.60;14.68;;;;;;;12.47;85.81;102364.09;5024433;28;20032;-83
2021/09/06 04:11:55;;;;;;;24.77;16.08;;;;;;;12.40;87.31;102363.34;5028847;28;20029;-83
2021/09/06 04:14:22;;;;;;;24.70;15.90;;;;;;;12.40;86.70;102365.97;5042821;28;20033;-82
2021/09/06 04:16:47;;;;;;;33.63;20.33;;;;;;;12.59;87.71;102369.03;5026406;28;20049;-82
2021/09/06 04:19:13;;;;;;;31.70;17.33;;;;;;;12.54;87.05;102365.66;5003991;28;20037;-82
2021/09/06 04:21:38;;;;;;;29.20;18.75;;;;;;;12.44;87.98;102366.78;5029196;28;20300;-82
2021/09/06 04:24:04;;;;;;;37.40;22.05;;;;;;;12.63;87.55;102365.44;5029023;28;20033;-82
2021/09/06 04:26:29;;;;;;;30.63;20.67;;;;;;;12.39;87.43;102366.91;5011016;28;20025;-82
2021/09/06 04:28:55;;;;;;;34.10;19.33;;;;;;;12.39;87.79;102371.31;5009686;28;20029;-82
2021/09/06 04:31:20;;;;;;;31.98;19.48;;;;;;;12.47;87.42;102371.97;5012004;28;20044;-83
2021/09/06 04:33:45;;;;;;;27.55;17.70;;;;;;;12.64;85.95;102374.16;5026676;28;20059;-82
2021/09/06 04:36:12;;;;;;;32.53;20.08;;;;;;;12.68;85.95;102378.47;5027818;28;20352;-82
2021/09/06 04:38:37;;;;;;;32.88;17.17;;;;;;;12.52;85.01;102385.88;5009525;28;20038;-82
2021/09/06 04:41:03;;;;;;;35.75;19.52;;;;;;;12.63;86.88;102386.44;5007332;28;20029;-83
2021/09/06 04:43:28;;;;;;;26.35;17.90;;;;;;;12.16;86.01;102379.72;5046119;28;20364;-82
2021/09/06 04:45:54;;;;;;;35.53;21.60;;;;;;;12.04;88.08;102391.34;5020352;28;20049;-82
2021/09/06 04:48:19;;;;;;;32.75;19.45;;;;;;;12.27;88.99;102391.69;5026906;28;20034;-82
2021/09/06 04:50:45;;;;;;;34.08;20.13;;;;;;;12.33;87.91;102382.78;5037043;28;20232;-82
2021/09/06 04:53:10;;;;;;;31.52;19.02;;;;;;;12.31;88.71;102389.84;5027806;28;20040;-82
2021/09/06 04:55:35;;;;;;;38.45;23.00;;;;;;;12.43;88.97;102393.97;5041259;28;20037;-82
2021/09/06 04:58:01;;;;;;;37.90;22.75;;;;;;;12.57;88.32;102396.25;5017086;28;20061;-85
2021/09/06 05:00:26;;;;;;;21.90;6.57;;;;;;;19.24;68.17;102387.63;5041525;28;20087;-85
2021/09/06 05:02:52;;;;;;;19.42;5.68;;;;;;;19.68;65.46;102389.72;5024275;28;20120;-85
2021/09/06 05:05:18;;;;;;;10.25;5.50;;;;;;;19.68;64.97;102389.72;5038371;28;20215;-86
2021/09/06 05:07:43;;;;;;;16.27;5.75;;;;;;;19.84;64.40;102388.91;4996924;28;20056;-85
2021/09/06 05:10:09;;;;;;;6.95;4.70;;;;;;;19.86;63.75;102393.19;5028843;28;20220;-85
2021/09/06 05:12:34;;;;;;;11.48;4.60;;;;;;;19.79;63.91;102397.13;5025522;28;20095;-85
2021/09/06 05:14:59;;;;;;;6.80;5.18;;;;;;;19.84;63.20;102394.22;5012078;28;20040;-85
2021/09/06 05:17:25;;;;;;;12.05;5.40;;;;;;;20.02;62.50;102395.84;5020160;28;20037;-86
2021/09/06 05:19:50;;;;;;;8.25;4.97;;;;;;;20.03;62.18;102394.03;5045701;28;20035;-84
2021/09/06 05:22:16;;;;;;;8.38;5.20;;;;;;;19.98;62.50;102396.97;5044852;28;20033;-85
2021/09/06 05:24:41;;;;;;;7.15;5.07;;;;;;;20.03;62.04;102402.91;5027512;28;20328;-85
2021/09/06 05:27:07;;;;;;;8.95;5.22;;;;;;;20.30;60.95;102405.81;5026755;28;20042;-85
2021/09/06 05:29:33;;;;;;;6.63;5.10;;;;;;;20.29;60.80;102405.88;5010927;28;20035;-85
2021/09/06 05:31:58;;;;;;;8.63;5.80;;;;;;;20.36;60.48;102404.59;5043411;28;20068;-85
2021/09/06 05:34:23;;;;;;;7.72;5.30;;;;;;;20.21;60.92;102403.66;5045670;28;20041;-86
2021/09/06 05:36:49;;;;;;;7.15;5.20;;;;;;;20.12;60.99;102402.38;5032310;28;20111;-85
2021/09/06 05:39:14;;;;;;;6.68;5.40;;;;;;;20.19;60.69;102410.84;5056577;28;20083;-85
2021/09/06 05:41:40;;;;;;;7.45;5.20;;;;;;;20.20;60.40;102417.91;5025099;28;20091;-85
2021/09/06 05:44:07;;;;;;;6.97;4.97;;;;;;;20.26;60.22;102420.19;5010690;28;20224;-84
2021/09/06 05:46:33;;;;;;;7.03;5.00;;;;;;;20.22;60.27;102417.81;5010730;28;20025;-85
2021/09/06 05:48:58;;;;;;;5.57;4.90;;;;;;;20.38;59.70;102423.13;5021826;28;20047;-84
2021/09/06 05:51:25;;;;;;;5.85;5.35;;;;;;;20.37;59.79;102430.22;5045297;28;20032;-85
2021/09/06 05:53:50;;;;;;;8.38;5.40;;;;;;;20.42;59.31;102425.50;5012388;28;20100;-84
2021/09/06 05:56:19;;;;;;;6.93;5.15;;;;;;;20.38;59.21;102429.31;5027930;28;20103;-84
2021/09/06 05:58:44;;;;;;;7.13;5.38;;;;;;;20.39;58.86;102433.69;5037242;28;20033;-83
2021/09/06 06:01:10;;;;;;;6.20;5.60;;;;;;;20.40;58.87;102435.38;5025322;28;20064;-83
2021/09/06 06:03:36;;;;;;;12.15;6.15;;;;;;;20.44;58.67;102436.06;5047639;28;20067;-83
2021/09/06 06:06:01;;;;;;;8.90;5.70;;;;;;;20.46;58.75;102434.19;5041077;28;20045;-83
2021/09/06 06:08:26;;;;;;;8.48;5.68;;;;;;;20.51;57.91;102437.44;5045970;28;20087;-82
2021/09/06 06:10:52;;;;;;;10.15;7.78;;;;;;;20.41;58.28;102439.78;5011150;28;20044;-82
2021/09/06 06:13:17;;;;;;;9.60;6.35;;;;;;;20.53;58.07;102435.53;5042495;28;20043;-83
2021/09/06 06:15:43;;;;;;;7.97;5.70;;;;;;;20.54;58.04;102439.94;5047721;28;20029;-82
2021/09/06 06:18:08;;;;;;;6.40;5.35;;;;;;;20.56;57.77;102438.03;5044001;28;20033;-81
2021/09/06 06:20:34;;;;;;;6.18;5.60;;;;;;;20.71;57.23;102455.78;5032180;28;20025;-83
2021/09/06 06:23:00;;;;;;;8.20;5.28;;;;;;;20.71;57.75;102457.59;5014806;28;20032;-82
2021/09/06 06:25:25;;;;;;;19.33;13.38;;;;;;;19.11;62.58;102448.50;5015318;28;20033;-82
2021/09/06 06:27:50;;;;;;;14.57;11.80;;;;;;;19.81;60.69;102447.53;5001640;28;20071;-82
2021/09/06 06:30:16;;;;;;;18.40;12.55;;;;;;;18.82;63.62;102444.66;5011259;28;20051;-83
2021/09/06 06:32:41;;;;;;;17.63;14.82;;;;;;;17.62;67.74;102452.94;5021889;28;20049;-82
2021/09/06 06:35:07;;;;;;;17.17;14.50;;;;;;;18.74;64.53;102449.50;5011776;28;20048;-82
2021/09/06 06:37:32;;;;;;;9.18;5.90;;;;;;;20.10;60.01;102452.16;5025650;28;20052;-82
2021/09/06 06:39:58;;;;;;;14.95;10.15;;;;;;;19.56;61.83;102454.16;5047732;28;20033;-81
2021/09/06 06:42:23;;;;;;;21.85;13.63;;;;;;;18.45;66.20;102457.06;5004198;28;20060;-82
2021/09/06 06:44:49;;;;;;;8.95;6.22;;;;;;;20.64;58.26;102456.25;5032293;28;20021;-82
2021/09/06 06:47:14;;;;;;;17.65;12.15;;;;;;;20.53;59.18;102457.69;5040588;28;20043;-82
2021/09/06 06:49:39;;;;;;;15.70;13.55;;;;;;;19.75;61.73;102467.34;5030928;28;20039;-81
2021/09/06 06:52:05;;;;;;;8.93;6.88;;;;;;;20.39;59.49;102462.06;5023625;28;20059;-81
2021/09/06 06:54:30;;;;;;;38.20;11.45;;;;;;;20.16;60.52;102463.38;5018967;28;20043;-80
2021/09/06 06:56:56;;;;;;;23.27;13.98;;;;;;;20.21;60.91;102467.50;5026156;28;20025;-80
2021/09/06 06:59:21;;;;;;;26.27;17.45;;;;;;;19.52;63.16;102471.22;5003284;28;20026;-81
2021/09/06 07:01:47;;;;;;;21.10;14.32;;;;;;;20.22;61.63;102469.19;5037225;28;20033;-81
2021/09/06 07:04:12;;;;;;;22.80;16.70;;;;;;;20.26;61.10;102470.75;5040208;28;20047;-81
2021/09/06 07:06:38;;;;;;;24.88;17.08;;;;;;;19.67;62.53;102467.72;5060069;28;20060;-80
2021/09/06 07:09:03;;;;;;;21.92;16.50;;;;;;;19.57;63.79;102477.13;5039050;28;20033;-81
2021/09/06 07:11:28;;;;;;;22.35;15.07;;;;;;;20.44;60.45;102468.00;5006032;28;20347;-81
2021/09/06 07:13:54;;;;;;;14.60;10.55;;;;;;;19.99;61.95;102472.28;5038105;28;20045;-81
2021/09/06 07:16:19;;;;;;;20.48;15.20;;;;;;;21.27;59.13;102472.03;5045774;28;20064;-81
2021/09/06 07:18:45;;;;;;;25.08;18.88;;;;;;;20.31;61.53;102470.50;5057633;28;20036;-81
2021/09/06 07:21:10;;;;;;;27.63;17.45;;;;;;;21.17;59.45;102472.69;5035603;28;20029;-80
2021/09/06 07:23:36;;;;;;;23.23;18.33;;;;;;;21.46;59.48;102476.28;5023083;28;20059;-81
2021/09/06 07:26:03;;;;;;;25.10;18.13;;;;;;;22.53;56.14;102475.81;5051849;28;20029;-81
2021/09/06 07:28:28;;;;;;;25.25;18.58;;;;;;;22.65;55.26;102476.78;5025002;28;20045;-81
2021/09/06 07:30:54;;;;;;;24.45;18.02;;;;;;;23.07;54.02;102478.44;5012888;28;20024;-81
2021/09/06 07:33:19;;;;;;;30.00;18.98;;;;;;;23.11;54.10;102484.44;5045067;28;20107;-81
2021/09/06 07:35:45;;;;;;;23.67;18.63;;;;;;;23.72;52.07;102480.19;5053954;28;20021;-82
2021/09/06 07:38:10;;;;;;;26.90;16.63;;;;;;;23.63;52.40;102486.19;5016536;28;20041;-82
2021/09/06 07:40:35;;;;;;;23.60;8.40;;;;;;;23.51;53.95;102487.88;5032238;28;20033;-81
2021/09/06 07:43:01;;;;;;;23.95;18.00;;;;;;;24.28;52.18;102495.81;5049935;28;20039;-83
2021/09/06 07:45:27;;;;;;;27.17;19.05;;;;;;;24.57;50.36;102495.53;5029710;28;20040;-81
2021/09/06 07:47:53;;;;;;;24.15;7.25;;;;;;;24.28;50.93;102495.81;5035642;28;20040;-81
2021/09/06 07:50:19;;;;;;;34.20;10.10;;;;;;;23.30;53.27;102497.41;5008042;28;20041;-79
2021/09/06 07:52:46;;;;;;;26.23;18.67;;;;;;;25.22;49.97;102506.75;5013036;28;20052;-82
2021/09/06 07:55:12;;;;;;;20.67;15.90;;;;;;;24.38;51.03;102505.88;5033335;28;20041;-84
2021/09/06 07:57:37;;;;;;;21.80;16.48;;;;;;;25.07;48.08;102509.63;5029798;28;20020;-85
2021/09/06 08:00:04;;;;;;;24.27;17.88;;;;;;;24.62;51.64;102514.78;5027389;28;20044;-84
2021/09/06 08:02:37;;;;;;;23.75;19.80;;;;;;;23.13;53.74;102514.59;5030978;28;20033;-81
2021/09/06 08:05:02;;;;;;;23.60;18.27;;;;;;;24.09;51.39;102514.19;5045306;28;20094;-82
2021/09/06 08:07:28;;;;;;;22.95;18.27;;;;;;;24.10;50.88;102518.56;5032339;28;20030;-83
2021/09/06 08:09:53;;;;;;;25.77;18.90;;;;;;;24.43;51.74;102522.44;5060109;28;20048;-82
2021/09/06 08:12:19;;;;;;;28.23;19.85;;;;;;;23.60;52.17;102531.00;5036974;28;20048;-82
2021/09/06 08:14:44;;;;;;;25.00;20.20;;;;;;;23.03;54.05;102533.03;5043684;28;20048;-82
2021/09/06 08:17:11;;;;;;;29.25;20.33;;;;;;;24.00;52.86;102529.09;5032862;28;20109;-81
2021/09/06 08:19:37;;;;;;;27.73;20.70;;;;;;;24.26;51.37;102534.38;5021252;28;20354;-82
2021/09/06 08:22:02;;;;;;;25.98;19.40;;;;;;;25.85;48.79;102532.22;5025444;28;20025;-82
2021/09/06 08:24:28;;;;;;;25.02;18.98;;;;;;;24.81;48.90;102540.22;5009926;28;20036;-81
2021/09/06 08:26:53;;;;;;;27.52;18.20;;;;;;;25.85;47.63;102528.69;5014502;28;20041;-83
2021/09/06 08:29:19;;;;;;;25.85;19.00;;;;;;;26.92;46.17;102542.44;5041587;28;20029;-82
2021/09/06 08:31:44;;;;;;;26.70;19.05;;;;;;;26.10;46.96;102542.84;5008465;28;20053;-82
2021/09/06 08:34:10;;;;;;;21.58;17.92;;;;;;;27.12;44.13;102546.13;5027091;28;20038;-84
2021/09/06 08:36:35;;;;;;;25.73;19.23;;;;;;;27.28;43.47;102549.25;5014805;28;20264;-83
2021/09/06 08:39:00;;;;;;;26.15;20.10;;;;;;;25.31;48.28;102550.81;5021845;28;20036;-82
2021/09/06 08:41:26;;;;;;;28.10;18.98;;;;;;;27.35;45.25;102553.13;5024543;28;20021;-81
2021/09/06 08:43:51;;;;;;;22.58;18.92;;;;;;;28.58;41.62;102551.41;5011863;28;20036;-82
2021/09/06 08:46:21;;;;;;;23.67;19.33;;;;;;;28.60;43.19;102561.09;5004568;28;20255;-83
2021/09/06 08:48:47;;;;;;;25.60;17.73;;;;;;;27.28;43.52;102560.03;5046631;28;20045;-82
2021/09/06 08:51:12;;;;;;;22.13;17.52;;;;;;;28.00;40.91;102558.34;5032434;28;20032;-81
2021/09/06 08:53:38;;;;;;;20.00;16.63;;;;;;;28.49;42.54;102547.72;5046590;28;20247;-83
2021/09/06 08:56:03;;;;;;;21.60;16.30;;;;;;;28.36;41.30;102553.34;5016949;28;20048;-82
2021/09/06 08:58:29;;;;;;;23.55;17.73;;;;;;;27.44;42.32;102547.97;5032270;28;20047;-83
2021/09/06 09:00:55;;;;;;;24.60;18.30;;;;;;;27.31;43.52;102554.38;5065078;28;20028;-83
2021/09/06 09:03:21;;;;;;;22.73;18.52;;;;;;;27.48;43.10;102550.25;5010762;28;20029;-83
2021/09/06 09:05:59;;;;;;;21.48;17.17;;;;;;;27.62;41.42;102550.91;5046179;28;20049;-82
2021/09/06 09:08:25;;;;;;;22.48;17.55;;;;;;;27.78;41.78;102559.34;5028541;28;20041;-82
2021/09/06 09:10:50;;;;;;;18.88;16.88;;;;;;;27.10;44.01;102561.56;5007438;28;20035;-81
2021/09/06 09:13:16;;;;;;;21.52;16.58;;;;;;;26.03;44.81;102555.91;5018301;28;20025;-81
2021/09/06 09:15:41;;;;;;;23.42;17.27;;;;;;;25.72;45.38;102555.63;5042002;28;20041;-83
2021/09/06 09:18:07;;;;;;;20.25;15.40;;;;;;;26.08;43.68;102567.13;5010589;28;20025;-83
2021/09/06 09:20:39;;;;;;;20.05;14.77;;;;;;;26.30;43.84;102562.72;5034291;28;20236;-83
2021/09/06 09:23:04;;;;;;;18.77;14.60;;;;;;;26.30;43.81;102562.72;5010831;28;20035;-83
2021/09/06 09:25:33;;;;;;;16.75;14.25;;;;;;;26.29;41.96;102566.41;5037836;28;20252;-83
2021/09/06 09:27:58;;;;;;;19.20;13.93;;;;;;;27.33;41.32;102559.66;5038846;28;20056;-84
2021/09/06 09:30:29;;;;;;;19.17;14.57;;;;;;;26.98;41.70;102560.75;5039537;28;20148;-83
2021/09/06 09:33:07;;;;;;;18.38;13.70;;;;;;;26.73;42.72;102552.03;5044876;28;20227;-83
2021/09/06 09:35:33;;;;;;;19.30;15.85;;;;;;;25.58;45.47;102551.34;5025833;28;20036;-85
2021/09/06 09:38:08;;;;;;;17.85;14.38;;;;;;;25.59;44.17;102550.34;5025771;28;20029;-84
2021/09/06 09:40:39;;;;;;;17.90;15.98;;;;;;;24.65;47.10;102552.06;5020182;28;20096;-84
2021/09/06 09:43:05;;;;;;;20.60;14.73;;;;;;;25.30;45.14;102549.94;5007880;28;20086;-84
2021/09/06 09:45:30;;;;;;;15.23;13.23;;;;;;;26.22;44.08;102555.31;5033609;28;20045;-84
2021/09/06 09:47:57;;;;;;;21.02;15.38;;;;;;;24.21;47.05;102549.91;5041011;28;20036;-82
2021/09/06 09:50:24;;;;;;;17.20;15.02;;;;;;;25.02;44.97;102546.63;5040878;28;20104;-82
2021/09/06 09:52:51;;;;;;;16.55;14.52;;;;;;;25.01;45.28;102542.28;5025839;28;20029;-82
2021/09/06 09:55:17;;;;;;;15.23;13.07;;;;;;;25.65;45.46;102544.53;5040267;28;20051;-82
2021/09/06 09:57:42;;;;;;;19.00;14.70;;;;;;;25.93;43.78;102544.22;5030049;28;20028;-82
2021/09/06 10:00:08;;;;;;;18.08;12.88;;;;;;;24.68;43.60;102546.47;5009862;28;20341;-82
2021/09/06 10:02:33;;;;;;;18.98;13.40;;;;;;;27.36;42.09;102545.91;5028161;28;20029;-82
2021/09/06 10:05:06;;;;;;;19.13;14.18;;;;;;;27.81;40.58;102544.75;5033183;28;20025;-82
2021/09/06 10:07:33;;;;;;;16.88;12.38;;;;;;;25.43;41.43;102541.78;5017781;28;20061;-82
2021/09/06 10:10:17;;;;;;;17.25;13.27;;;;;;;29.21;37.04;102541.09;5027864;28;20378;-83
2021/09/06 10:12:42;;;;;;;16.75;12.50;;;;;;;29.00;38.58;102535.00;5025341;28;20025;-82
2021/09/06 10:15:09;;;;;;;14.95;13.40;;;;;;;26.83;39.80;102544.06;5023665;28;20049;-81
2021/09/06 10:17:39;;;;;;;16.13;14.00;;;;;;;26.62;41.39;102538.66;5052489;28;20055;-83
2021/09/06 10:20:25;;;;;;;16.45;14.10;;;;;;;26.70;43.43;102538.00;5037211;28;20224;-82
2021/09/06 10:23:02;;;;;;;22.83;16.23;;;;;;;24.99;45.63;102528.09;5032588;28;20367;-82
2021/09/06 10:25:29;;;;;;;16.23;13.30;;;;;;;26.55;42.21;102532.03;5025799;28;20229;-82
2021/09/06 10:28:06;;;;;;;20.85;15.20;;;;;;;25.79;44.76;102535.38;5020189;28;20033;-83
2021/09/06 10:30:32;;;;;;;25.70;14.40;;;;;;;27.15;41.34;102535.13;5023670;28;20052;-82
2021/09/06 10:32:57;;;;;;;19.85;14.43;;;;;;;26.95;41.70;102531.44;5061147;28;20032;-83
2021/09/06 10:35:23;;;;;;;16.05;10.35;;;;;;;26.65;43.49;102533.03;5025648;28;20067;-83
2021/09/06 10:38:04;;;;;;;15.05;13.45;;;;;;;25.98;42.37;102531.28;5025043;28;20051;-82
2021/09/06 10:40:32;;;;;;;10.35;8.20;;;;;;;27.74;40.86;102534.53;5002807;28;20092;-83
2021/09/06 10:42:57;;;;;;;9.23;8.35;;;;;;;26.76;43.24;102537.50;5032528;28;20033;-83
2021/09/06 10:45:23;;;;;;;13.63;11.95;;;;;;;26.71;43.20;102540.56;5009097;28;20033;-83
2021/09/06 10:48:00;;;;;;;19.27;12.48;;;;;;;27.51;40.25;102538.38;5043705;28;20067;-83
2021/09/06 10:50:25;;;;;;;20.42;11.95;;;;;;;25.79;40.93;102532.69;5032611;28;20029;-82
2021/09/06 10:52:51;;;;;;;15.30;11.18;;;;;;;26.16;40.71;102545.03;5023475;28;20423;-83
2021/09/06 10:55:17;;;;;;;13.88;11.70;;;;;;;26.97;39.30;102529.47;5037254;28;20378;-83
2021/09/06 10:57:43;;;;;;;10.27;7.63;;;;;;;27.64;40.86;102530.94;5057025;28;20072;-84
2021/09/06 11:00:20;;;;;;;18.55;11.50;;;;;;;28.23;37.76;102532.03;5025230;28;20350;-82
2021/09/06 11:02:48;;;;;;;12.70;11.45;;;;;;;26.64;37.73;102533.16;5009909;28;20043;-83
2021/09/06 11:05:21;;;;;;;15.57;11.30;;;;;;;27.27;39.07;102520.69;5043907;28;20025;-82
2021/09/06 11:07:46;;;;;;;15.15;12.43;;;;;;;26.43;41.19;102529.41;5024846;28;20100;-83